Time;durP1;ratioP1;P1;durP2;ratioP2;P2;SDS_P1;SDS_P2;PMS_P1;PMS_P2;Temp;Humidity;BMP_temperature;BMP_pressure;BME280_temperature;BME280_humidity;BME280_pressure;Samples;Min_cycle;Max_cycle;Signal;HPM_P1;HPM_P2
2022/10/05 00:01:48;;;;;;;10.50;5.15;;;16.20;99.90;;;;;;5035505;28;20515;-63
2022/10/05 00:04:15;;;;;;;10.13;5.63;;;16.00;99.90;;;;;;5017194;28;20057;-63
2022/10/05 00:06:49;;;;;;;10.15;5.45;;;16.00;99.90;;;;;;5034457;28;20119;-63
2022/10/05 00:09:17;;;;;;;11.13;6.40;;;15.90;99.90;;;;;;5035099;28;20034;-64
2022/10/05 00:11:44;;;;;;;8.65;4.38;;;16.00;99.90;;;;;;5033803;28;20041;-63
2022/10/05 00:14:19;;;;;;;6.90;4.35;;;16.10;99.90;;;;;;5034082;28;20049;-63
2022/10/05 00:16:44;;;;;;;9.05;4.22;;;16.00;99.90;;;;;;5029294;28;20127;-63
2022/10/05 00:19:20;;;;;;;7.85;4.65;;;16.20;99.90;;;;;;5014053;28;20098;-63
2022/10/05 00:21:45;;;;;;;8.48;4.05;;;15.90;99.90;;;;;;5014183;28;20404;-63
2022/10/05 00:24:12;;;;;;;11.77;4.20;;;15.90;99.90;;;;;;5025886;28;20045;-63
2022/10/05 00:26:38;;;;;;;8.18;4.35;;;16.00;99.90;;;;;;5030316;28;20041;-63
2022/10/05 00:29:19;;;;;;;5.88;4.20;;;15.90;99.90;;;;;;5023010;28;20423;-65
2022/10/05 00:31:45;;;;;;;8.73;5.20;;;16.10;99.90;;;;;;5017647;28;20041;-63
2022/10/05 00:34:10;;;;;;;9.65;4.18;;;16.10;99.90;;;;;;5022406;28;20569;-63
2022/10/05 00:36:38;;;;;;;6.60;4.45;;;16.10;99.90;;;;;;5034622;28;20063;-63
2022/10/05 00:39:03;;;;;;;9.68;4.35;;;15.90;99.90;;;;;;5033662;28;20057;-63
2022/10/05 00:41:45;;;;;;;9.93;3.75;;;15.90;99.90;;;;;;5019928;28;20045;-63
2022/10/05 00:44:33;;;;;;;8.45;3.90;;;15.90;99.90;;;;;;5017906;28;20478;-63
2022/10/05 00:47:12;;;;;;;12.32;4.53;;;15.90;99.90;;;;;;5030455;28;20064;-63
2022/10/05 00:50:22;;;;;;;8.50;4.32;;;16.10;99.90;;;;;;5013438;28;20092;-63
2022/10/05 00:53:00;;;;;;;7.57;4.47;;;15.90;99.90;;;;;;4973486;28;20039;-63
2022/10/05 00:55:43;;;;;;;8.50;4.40;;;16.10;99.90;;;;;;5014335;28;20057;-63
2022/10/05 00:58:39;;;;;;;5.40;4.35;;;16.00;99.90;;;;;;5033027;28;20045;-63
2022/10/05 01:01:10;;;;;;;;;;;16.00;99.90;;;;;;5020640;28;20045;-63
2022/10/05 01:04:05;;;;;;;10.02;4.85;;;16.00;99.90;;;;;;5019401;28;19921;-63
2022/10/05 01:06:52;;;;;;;6.93;4.90;;;16.00;99.90;;;;;;5033907;28;20048;-63
2022/10/05 01:09:51;;;;;;;11.35;5.13;;;16.00;99.90;;;;;;5032746;28;20077;-64
2022/10/05 01:12:33;;;;;;;9.35;5.15;;;16.00;99.90;;;;;;5032770;28;20048;-63
2022/10/05 01:15:02;;;;;;;8.18;5.40;;;16.00;99.90;;;;;;5032690;28;20046;-63
2022/10/05 01:17:43;;;;;;;10.15;5.35;;;15.80;99.90;;;;;;5022369;28;20571;-63
2022/10/05 01:20:39;;;;;;;9.15;5.57;;;15.80;99.90;;;;;;5014151;28;20044;-63
2022/10/05 01:23:39;;;;;;;7.53;4.63;;;15.80;99.90;;;;;;5016110;28;20113;-63
2022/10/05 01:26:42;;;;;;;7.45;5.20;;;15.90;99.90;;;;;;5033876;28;20045;-63
2022/10/05 01:29:32;;;;;;;9.50;5.15;;;15.90;99.90;;;;;;5013982;28;20514;-63
2022/10/05 01:32:28;;;;;;;8.05;6.05;;;15.90;99.90;;;;;;5014097;28;20038;-63
2022/10/05 01:35:12;;;;;;;10.82;5.93;;;15.80;99.90;;;;;;5014012;28;20143;-64
2022/10/05 01:37:48;;;;;;;8.32;5.13;;;15.80;99.90;;;;;;5032527;28;20053;-63
2022/10/05 01:40:25;;;;;;;10.43;5.68;;;15.90;99.90;;;;;;5015405;28;20048;-63
2022/10/05 01:43:09;;;;;;;10.02;5.22;;;15.80;99.90;;;;;;5012596;28;20104;-63
2022/10/05 01:46:12;;;;;;;8.93;5.80;;;15.70;99.90;;;;;;5027820;28;20067;-63
2022/10/05 01:48:47;;;;;;;10.35;5.88;;;15.90;99.90;;;;;;5016137;28;20046;-64
2022/10/05 01:51:44;;;;;;;9.25;6.13;;;15.90;99.90;;;;;;5012670;28;20104;-63
2022/10/05 01:54:41;;;;;;;7.60;5.05;;;16.00;99.90;;;;;;5033123;28;20083;-63
2022/10/05 01:57:38;;;;;;;14.20;5.75;;;16.00;99.90;;;;;;5031885;28;20116;-64
2022/10/05 02:00:09;;;;;;;11.50;6.63;;;15.80;99.90;;;;;;5031948;28;20045;-63
2022/10/05 02:02:46;;;;;;;10.60;5.53;;;15.80;99.90;;;;;;5025208;28;20099;-63
2022/10/05 02:05:17;;;;;;;7.45;5.43;;;15.80;99.90;;;;;;5021907;28;20501;-63
2022/10/05 02:07:50;;;;;;;7.47;5.38;;;15.90;99.90;;;;;;5016736;28;20213;-63
2022/10/05 02:10:35;;;;;;;8.20;5.50;;;15.90;99.90;;;;;;5013307;28;20038;-63
2022/10/05 02:13:12;;;;;;;10.03;4.87;;;15.80;99.90;;;;;;5021398;28;20395;-63
2022/10/05 02:15:43;;;;;;;8.70;5.38;;;15.70;99.90;;;;;;5031570;28;20383;-63
2022/10/05 02:18:22;;;;;;;9.70;5.43;;;15.80;99.90;;;;;;5031387;28;20121;-63
2022/10/05 02:20:51;;;;;;;9.10;5.55;;;15.70;99.90;;;;;;5031428;28;20047;-63
2022/10/05 02:23:26;;;;;;;10.07;4.65;;;15.50;99.90;;;;;;5021400;28;20049;-63
2022/10/05 02:25:54;;;;;;;10.40;5.72;;;15.70;99.90;;;;;;5030321;28;20068;-63
2022/10/05 02:28:35;;;;;;;7.82;5.10;;;15.60;99.90;;;;;;5031567;28;20124;-64
2022/10/05 02:31:09;;;;;;;9.52;4.85;;;15.80;99.90;;;;;;5027922;28;20046;-63
2022/10/05 02:33:35;;;;;;;8.55;5.15;;;15.80;99.90;;;;;;5012988;28;20137;-64
2022/10/05 02:36:18;;;;;;;11.10;5.00;;;15.60;99.90;;;;;;5013212;28;20077;-63
2022/10/05 02:38:58;;;;;;;9.85;5.10;;;16.00;99.90;;;;;;5020326;28;20500;-63
2022/10/05 02:41:37;;;;;;;7.40;5.00;;;16.00;99.90;;;;;;5013012;28;20038;-64
2022/10/05 02:44:36;;;;;;;7.30;4.72;;;15.70;99.90;;;;;;5016894;28;20388;-64
2022/10/05 02:47:28;;;;;;;12.18;4.88;;;15.80;99.90;;;;;;5032220;28;20041;-63
2022/10/05 02:50:13;;;;;;;10.52;4.93;;;15.80;99.90;;;;;;5011666;28;20045;-64
2022/10/05 02:52:50;;;;;;;8.98;4.70;;;15.70;99.90;;;;;;5011752;28;20038;-64
2022/10/05 02:55:26;;;;;;;6.95;4.95;;;15.90;99.90;;;;;;5012983;28;20430;-63
2022/10/05 02:58:04;;;;;;;6.97;3.83;;;15.70;99.90;;;;;;5029894;28;20405;-63
2022/10/05 03:00:43;;;;;;;5.85;4.32;;;15.90;99.90;;;;;;5026138;28;20042;-63
2022/10/05 03:03:18;;;;;;;9.18;5.00;;;15.80;99.90;;;;;;5015439;28;20385;-63
2022/10/05 03:06:13;;;;;;;6.95;4.30;;;15.80;99.90;;;;;;5025741;28;20048;-63
2022/10/05 03:08:58;;;;;;;;;;;16.00;99.90;;;;;;5013847;28;20567;-63
2022/10/05 03:11:52;;;;;;;7.47;3.95;;;15.70;99.90;;;;;;5031043;28;20003;-63
2022/10/05 03:14:25;;;;;;;6.43;4.63;;;15.70;99.90;;;;;;5025300;28;20515;-64
2022/10/05 03:17:24;;;;;;;9.10;4.60;;;15.70;99.90;;;;;;5020286;28;20041;-63
2022/10/05 03:19:59;;;;;;;6.65;4.53;;;15.70;99.90;;;;;;5023552;28;20061;-64
2022/10/05 03:22:53;;;;;;;7.75;4.03;;;15.60;99.90;;;;;;4998849;28;20455;-63
2022/10/05 03:25:31;;;;;;;5.25;4.18;;;15.60;99.90;;;;;;5016218;28;20132;-63
2022/10/05 03:28:24;;;;;;;6.88;4.68;;;15.40;99.90;;;;;;5014987;28;20563;-63
2022/10/05 03:31:16;;;;;;;9.82;4.95;;;15.60;99.90;;;;;;5016283;28;20157;-63
2022/10/05 03:34:07;;;;;;;9.77;4.80;;;15.60;99.90;;;;;;5017188;28;20127;-63
2022/10/05 03:37:03;;;;;;;9.32;5.20;;;15.70;99.90;;;;;;5034606;28;20480;-63
2022/10/05 03:39:50;;;;;;;7.00;5.22;;;15.70;99.90;;;;;;5016025;28;20443;-63
2022/10/05 03:42:29;;;;;;;9.57;4.90;;;15.60;99.90;;;;;;5017715;28;20045;-63
2022/10/05 03:45:26;;;;;;;9.10;5.72;;;15.60;99.90;;;;;;5035450;28;20041;-64
2022/10/05 03:48:12;;;;;;;13.15;5.90;;;15.60;99.90;;;;;;5016000;28;20040;-63
2022/10/05 03:50:56;;;;;;;8.68;5.55;;;15.60;99.90;;;;;;5015580;28;20447;-63
2022/10/05 03:53:33;;;;;;;9.45;4.78;;;15.40;99.90;;;;;;5023612;28;20487;-63
2022/10/05 03:56:02;;;;;;;6.38;4.97;;;15.50;99.90;;;;;;5018576;28;20042;-63
2022/10/05 03:58:43;;;;;;;9.43;4.82;;;15.50;99.90;;;;;;5014291;28;20148;-63
2022/10/05 04:01:14;;;;;;;7.88;5.03;;;15.30;99.90;;;;;;5031636;28;20042;-63
2022/10/05 04:03:46;;;;;;;10.75;5.03;;;15.50;99.90;;;;;;5025046;28;20069;-64
2022/10/05 04:06:12;;;;;;;8.05;4.90;;;15.50;99.90;;;;;;5014444;28;20443;-63
2022/10/05 04:08:53;;;;;;;10.38;5.82;;;15.50;99.90;;;;;;5013132;28;20069;-63
2022/10/05 04:11:28;;;;;;;10.57;5.90;;;15.50;99.90;;;;;;5032371;28;20426;-63
2022/10/05 04:14:00;;;;;;;7.68;5.47;;;15.40;99.90;;;;;;5023523;28;20404;-63
2022/10/05 04:16:30;;;;;;;12.50;5.75;;;15.40;99.90;;;;;;5014996;28;20463;-63
2022/10/05 04:19:11;;;;;;;11.23;6.43;;;15.40;99.90;;;;;;5014316;28;20042;-63
2022/10/05 04:21:58;;;;;;;10.43;6.30;;;15.40;99.90;;;;;;5028870;28;20510;-63
2022/10/05 04:24:35;;;;;;;8.90;6.18;;;15.50;99.90;;;;;;5015163;28;20073;-63
2022/10/05 04:27:15;;;;;;;15.57;7.45;;;15.50;99.90;;;;;;5015230;28;20100;-63
2022/10/05 04:29:43;;;;;;;10.15;7.40;;;15.60;99.90;;;;;;5013919;28;20042;-63
2022/10/05 04:32:29;;;;;;;10.95;7.70;;;15.30;99.90;;;;;;5031538;28;20644;-63
2022/10/05 04:35:16;;;;;;;9.82;7.20;;;15.30;99.90;;;;;;5023431;28;20113;-64
2022/10/05 04:38:02;;;;;;;10.57;7.55;;;15.40;99.90;;;;;;5014907;28;20045;-63
2022/10/05 04:40:40;;;;;;;13.70;8.18;;;15.50;99.90;;;;;;5013396;28;20492;-63
2022/10/05 04:43:18;;;;;;;10.25;7.80;;;15.30;99.90;;;;;;5023364;28;20087;-63
2022/10/05 04:46:14;;;;;;;11.20;6.90;;;15.20;99.90;;;;;;5031843;28;20073;-63
2022/10/05 04:49:21;;;;;;;10.95;7.45;;;15.30;99.90;;;;;;5013766;28;20057;-63
2022/10/05 04:52:09;;;;;;;12.85;7.50;;;15.30;99.90;;;;;;4976504;28;20129;-63
2022/10/05 04:54:43;;;;;;;11.27;7.28;;;15.20;99.90;;;;;;5016858;28;20128;-63
2022/10/05 04:57:15;;;;;;;11.93;8.70;;;15.30;99.90;;;;;;5034339;28;20045;-64
2022/10/05 05:00:08;;;;;;;13.07;8.18;;;15.30;99.90;;;;;;5032935;28;20048;-63
2022/10/05 05:02:44;;;;;;;12.27;8.38;;;15.20;99.90;;;;;;5019240;28;20049;-63
2022/10/05 05:05:48;;;;;;;12.57;6.70;;;15.30;99.90;;;;;;5022940;28;20374;-63
2022/10/05 05:08:22;;;;;;;12.38;7.35;;;15.50;99.90;;;;;;5027496;28;20392;-63
2022/10/05 05:11:00;;;;;;;12.05;7.63;;;15.10;99.90;;;;;;5013017;28;20053;-63
2022/10/05 05:14:13;;;;;;;9.73;7.20;;;15.40;99.90;;;;;;5013007;28;20049;-63
2022/10/05 05:16:41;;;;;;;13.00;7.40;;;15.30;99.90;;;;;;5019317;28;20416;-63
2022/10/05 05:19:51;;;;;;;10.77;7.22;;;15.30;99.90;;;;;;5021247;28;20085;-63
2022/10/05 05:22:35;;;;;;;13.27;7.53;;;15.20;99.90;;;;;;5033293;28;20048;-63
2022/10/05 05:25:29;;;;;;;11.75;8.07;;;15.20;99.90;;;;;;5032449;28;20049;-64
2022/10/05 05:28:13;;;;;;;12.70;7.47;;;15.30;99.90;;;;;;5012814;28;20113;-63
2022/10/05 05:30:46;;;;;;;13.02;7.55;;;15.20;99.90;;;;;;5014007;28;20040;-63
2022/10/05 05:33:28;;;;;;;16.70;7.63;;;15.20;99.90;;;;;;5013930;28;20056;-63
2022/10/05 05:36:13;;;;;;;12.10;7.80;;;15.20;99.90;;;;;;5013667;28;20036;-63
2022/10/05 05:39:04;;;;;;;14.63;7.63;;;15.20;99.90;;;;;;5012512;28;20121;-64
2022/10/05 05:41:38;;;;;;;12.48;7.53;;;15.20;99.90;;;;;;5012530;28;20373;-63
2022/10/05 05:44:24;;;;;;;12.50;7.82;;;15.30;99.90;;;;;;5018276;28;20041;-63
2022/10/05 05:47:00;;;;;;;13.52;6.85;;;15.20;99.90;;;;;;5031535;28;20049;-62
2022/10/05 05:49:33;;;;;;;11.13;7.05;;;15.10;99.90;;;;;;5033217;28;20411;-62
2022/10/05 05:52:04;;;;;;;11.80;6.63;;;15.30;99.90;;;;;;5032070;28;20048;-62
2022/10/05 05:54:48;;;;;;;10.35;7.45;;;15.30;99.90;;;;;;5014950;28;20042;-63
2022/10/05 05:57:33;;;;;;;14.00;7.45;;;15.30;99.90;;;;;;5013520;28;20566;-63
2022/10/05 06:00:27;;;;;;;9.73;6.70;;;15.30;99.90;;;;;;5012224;28;20447;-64
2022/10/05 06:03:13;;;;;;;9.43;6.60;;;15.20;99.90;;;;;;5013208;28;20049;-63
2022/10/05 06:05:43;;;;;;;9.07;6.63;;;15.20;99.90;;;;;;5013319;28;20091;-63
2022/10/05 06:08:20;;;;;;;10.07;6.18;;;15.50;99.90;;;;;;5013474;28;20033;-63
2022/10/05 06:10:51;;;;;;;10.82;6.63;;;15.20;99.90;;;;;;5013281;28;20049;-63
2022/10/05 06:13:24;;;;;;;9.98;6.93;;;15.10;99.90;;;;;;5013091;28;20046;-64
2022/10/05 06:15:54;;;;;;;13.73;7.25;;;15.20;99.90;;;;;;5024112;28;20069;-63
2022/10/05 06:18:21;;;;;;;11.30;6.95;;;15.30;99.90;;;;;;5026671;28;20042;-63
2022/10/05 06:20:59;;;;;;;13.75;6.57;;;15.30;99.90;;;;;;5020327;28;20037;-63
2022/10/05 06:23:41;;;;;;;9.95;6.07;;;15.20;99.90;;;;;;5016940;28;20459;-64
2022/10/05 06:26:24;;;;;;;13.38;7.32;;;15.20;99.90;;;;;;5013256;28;20488;-63
2022/10/05 06:29:01;;;;;;;11.02;6.50;;;15.20;99.90;;;;;;5030221;28;20030;-63
2022/10/05 06:31:32;;;;;;;10.25;6.75;;;15.30;99.90;;;;;;5023032;28;20050;-63
2022/10/05 06:34:16;;;;;;;12.77;6.32;;;15.10;99.90;;;;;;5036669;28;20063;-63
2022/10/05 06:36:51;;;;;;;8.27;6.15;;;15.10;99.90;;;;;;5039259;28;20045;-63
2022/10/05 06:39:25;;;;;;;6.97;5.57;;;15.20;99.90;;;;;;5021143;28;20045;-64
2022/10/05 06:42:16;;;;;;;13.53;6.33;;;15.20;99.90;;;;;;5039270;28;20487;-63
2022/10/05 06:45:13;;;;;;;8.52;5.38;;;15.20;99.90;;;;;;5028911;28;20308;-63
2022/10/05 06:47:45;;;;;;;8.63;5.60;;;15.30;99.90;;;;;;5037578;28;20108;-63
2022/10/05 06:50:28;;;;;;;9.65;6.50;;;15.30;99.90;;;;;;5026450;28;20550;-63
2022/10/05 06:53:06;;;;;;;8.80;5.65;;;15.50;99.90;;;;;;5026776;28;20121;-63
2022/10/05 06:55:49;;;;;;;9.25;5.18;;;15.30;99.90;;;;;;5038168;28;20360;-63
2022/10/05 06:58:47;;;;;;;7.47;5.35;;;15.40;99.90;;;;;;5019577;28;20136;-63
2022/10/05 07:01:38;;;;;;;10.27;5.55;;;15.10;99.90;;;;;;5038570;28;20403;-62
2022/10/05 07:04:54;;;;;;;9.02;5.30;;;15.30;99.90;;;;;;5037190;28;20056;-64
2022/10/05 07:07:44;;;;;;;7.97;5.97;;;15.30;99.90;;;;;;5011808;28;20085;-65
2022/10/05 07:10:10;;;;;;;9.40;5.13;;;;;;;;;;5035453;28;20076;-64
2022/10/05 07:12:48;;;;;;;7.60;4.88;;;15.40;99.90;;;;;;5037018;28;20499;-64
2022/10/05 07:15:32;;;;;;;6.05;4.68;;;15.40;99.90;;;;;;5036352;28;20104;-65
2022/10/05 07:18:32;;;;;;;6.55;4.32;;;15.30;99.90;;;;;;5036240;28;20045;-64
2022/10/05 07:21:14;;;;;;;6.13;4.45;;;15.40;99.90;;;;;;4999137;28;20080;-65
2022/10/05 07:23:57;;;;;;;4.05;3.35;;;15.40;99.90;;;;;;5011620;28;20103;-66
2022/10/05 07:27:00;;;;;;;5.72;3.75;;;15.30;99.90;;;;;;5036969;28;20048;-65
2022/10/05 07:29:33;;;;;;;5.72;3.65;;;15.40;99.90;;;;;;5033514;28;20132;-65
2022/10/05 07:32:10;;;;;;;5.32;3.20;;;15.40;99.90;;;;;;5037276;28;20040;-66
2022/10/05 07:34:51;;;;;;;5.93;3.22;;;15.40;99.90;;;;;;5037760;28;20094;-65
2022/10/05 07:40:28;;;;;;;3.45;2.60;;;15.60;99.90;;;;;;5017012;28;20050;-63
2022/10/05 07:43:05;;;;;;;4.78;2.70;;;15.50;99.90;;;;;;5022781;28;20055;-65
2022/10/05 07:45:43;;;;;;;3.58;2.00;;;15.70;99.90;;;;;;5033456;28;20100;-65
2022/10/05 07:48:22;;;;;;;5.35;2.20;;;15.50;99.90;;;;;;5022257;28;20044;-64
2022/10/05 07:51:14;;;;;;;3.92;2.00;;;15.50;99.90;;;;;;5017906;28;20121;-64
2022/10/05 07:53:48;;;;;;;6.07;1.92;;;15.70;99.90;;;;;;5032783;28;20056;-65
2022/10/05 07:56:22;;;;;;;1.88;1.55;;;15.60;99.90;;;;;;5034262;28;20049;-64
2022/10/05 07:59:00;;;;;;;6.03;2.67;;;15.60;99.90;;;;;;5020792;28;20385;-64
2022/10/05 08:01:30;;;;;;;3.28;2.42;;;15.50;99.90;;;;;;5028179;28;20475;-64
2022/10/05 08:04:08;;;;;;;3.25;2.00;;;15.70;99.90;;;;;;5012986;28;20088;-64
2022/10/05 08:06:46;;;;;;;3.78;2.10;;;15.80;99.90;;;;;;5012683;28;20132;-65
2022/10/05 08:09:38;;;;;;;3.42;2.30;;;15.70;99.90;;;;;;5013039;28;20050;-65
2022/10/05 08:12:25;;;;;;;4.57;2.08;;;15.70;99.90;;;;;;5016744;28;20388;-63
2022/10/05 08:15:12;;;;;;;5.53;2.55;;;15.80;99.90;;;;;;5027593;28;20515;-65
2022/10/05 08:17:59;;;;;;;3.13;2.40;;;15.70;99.90;;;;;;5013834;28;20051;-62
2022/10/05 08:20:43;;;;;;;8.05;3.80;;;15.70;99.90;;;;;;5028908;28;20041;-64
2022/10/05 08:23:16;;;;;;;4.17;2.73;;;15.90;99.90;;;;;;5016543;28;20755;-64
2022/10/05 08:26:13;;;;;;;4.65;3.45;;;15.90;99.90;;;;;;5043067;28;20280;-64
2022/10/05 08:28:58;;;;;;;4.45;3.35;;;16.00;99.90;;;;;;4989657;28;20414;-66
2022/10/05 08:31:26;;;;;;;5.32;3.78;;;16.00;99.90;;;;;;5031853;28;20069;-64
2022/10/05 08:34:03;;;;;;;4.90;3.40;;;15.90;99.90;;;;;;5033209;28;20052;-64
2022/10/05 08:36:48;;;;;;;6.22;3.33;;;15.90;99.90;;;;;;5031857;28;20041;-64
2022/10/05 08:39:20;;;;;;;5.30;3.60;;;16.10;99.90;;;;;;5033119;28;20045;-64
2022/10/05 08:41:57;;;;;;;6.65;3.83;;;16.00;99.90;;;;;;5024973;28;20041;-64
2022/10/05 08:44:38;;;;;;;5.63;3.95;;;16.10;99.90;;;;;;5031493;28;20561;-65
2022/10/05 08:47:22;;;;;;;5.53;4.05;;;16.20;99.90;;;;;;5031814;28;20091;-64
2022/10/05 08:50:03;;;;;;;5.90;4.28;;;16.10;99.90;;;;;;5029773;28;20056;-65
2022/10/05 08:52:50;;;;;;;5.82;4.25;;;16.20;99.90;;;;;;5031374;28;20042;-64
2022/10/05 08:55:30;;;;;;;9.23;4.50;;;16.10;99.90;;;;;;5031312;28;20046;-64
2022/10/05 08:58:04;;;;;;;10.32;4.47;;;16.10;99.90;;;;;;5032176;28;20045;-64
2022/10/05 09:01:04;;;;;;;6.20;4.90;;;16.20;99.90;;;;;;5025798;28;20038;-64
2022/10/05 09:03:51;;;;;;;8.43;5.10;;;16.20;99.90;;;;;;5030922;28;20048;-64
2022/10/05 09:06:26;;;;;;;5.57;4.28;;;16.10;99.90;;;;;;5032033;28;20112;-64
2022/10/05 09:08:58;;;;;;;5.72;3.90;;;16.10;99.90;;;;;;5032037;28;20065;-64
2022/10/05 09:11:31;;;;;;;5.32;4.07;;;16.20;99.90;;;;;;5032064;28;20049;-64
2022/10/05 09:14:31;;;;;;;5.97;3.85;;;16.30;99.90;;;;;;5033353;28;20442;-64
2022/10/05 09:17:15;;;;;;;6.43;3.60;;;16.20;99.90;;;;;;5029634;28;20099;-64
2022/10/05 09:19:52;;;;;;;6.05;3.75;;;16.40;99.90;;;;;;5031671;28;20050;-62
2022/10/05 09:22:39;;;;;;;4.90;3.85;;;16.40;99.90;;;;;;5031829;28;20061;-64
2022/10/05 09:25:22;;;;;;;6.28;3.63;;;16.40;99.90;;;;;;5031327;28;20707;-65
2022/10/05 09:27:56;;;;;;;7.22;3.97;;;16.40;99.90;;;;;;5031772;28;20092;-65
2022/10/05 09:30:36;;;;;;;4.18;2.92;;;16.40;99.90;;;;;;5031626;28;20052;-65
2022/10/05 09:33:24;;;;;;;6.03;3.40;;;16.40;99.90;;;;;;5030414;28;20041;-65
2022/10/05 09:36:03;;;;;;;4.63;3.13;;;16.30;99.90;;;;;;5031525;28;20120;-65
2022/10/05 09:38:56;;;;;;;7.00;3.53;;;16.40;99.90;;;;;;5031397;28;20479;-65
2022/10/05 09:41:34;;;;;;;5.07;3.53;;;16.40;99.90;;;;;;5011682;28;20488;-65
2022/10/05 09:44:21;;;;;;;5.82;3.65;;;16.50;99.90;;;;;;5026984;28;20538;-65
2022/10/05 09:47:03;;;;;;;4.85;2.88;;;16.40;99.90;;;;;;5031092;28;20543;-64
2022/10/05 09:49:53;;;;;;;7.90;4.53;;;16.60;99.90;;;;;;5032384;28;20045;-65
2022/10/05 09:52:51;;;;;;;4.57;2.95;;;16.50;99.90;;;;;;5026035;28;20037;-65
2022/10/05 09:55:53;;;;;;;4.35;2.70;;;16.50;99.90;;;;;;5031006;28;20076;-64
2022/10/05 09:58:56;;;;;;;5.93;3.35;;;16.50;99.90;;;;;;5024099;28;20044;-65
2022/10/05 10:01:54;;;;;;;9.35;3.63;;;16.50;99.90;;;;;;5031905;28;20034;-65
2022/10/05 10:04:50;;;;;;;5.22;3.00;;;16.60;99.90;;;;;;5030771;28;20115;-65
2022/10/05 10:07:34;;;;;;;3.30;3.00;;;16.40;99.90;;;;;;5031189;28;20564;-64
2022/10/05 10:10:28;;;;;;;6.03;3.08;;;16.50;99.90;;;;;;5022127;28;20037;-65
2022/10/05 10:13:20;;;;;;;4.40;2.80;;;16.50;99.90;;;;;;5014361;28;20040;-65
2022/10/05 10:15:56;;;;;;;4.97;2.85;;;16.50;99.90;;;;;;5029989;28;20054;-65
2022/10/05 10:18:52;;;;;;;5.38;3.17;;;16.50;99.90;;;;;;5020356;28;20496;-65
2022/10/05 10:21:46;;;;;;;3.40;2.50;;;16.40;99.90;;;;;;5030842;28;20117;-65
2022/10/05 10:24:27;;;;;;;3.15;2.78;;;16.50;99.90;;;;;;5010886;28;20125;-65
2022/10/05 10:27:22;;;;;;;5.38;2.60;;;16.50;99.90;;;;;;5026249;28;20044;-65
2022/10/05 10:29:53;;;;;;;5.70;3.15;;;16.50;99.90;;;;;;5022404;28;20133;-65
2022/10/05 10:32:53;;;;;;;4.22;2.97;;;16.60;99.90;;;;;;5031964;28;20030;-65
2022/10/05 10:35:35;;;;;;;6.30;3.40;;;16.50;99.90;;;;;;5029266;28;20045;-65
2022/10/05 10:38:12;;;;;;;5.10;3.38;;;16.40;99.90;;;;;;5030273;28;20403;-63
2022/10/05 10:41:12;;;;;;;6.78;3.08;;;16.40;99.90;;;;;;5030391;28;20086;-66
2022/10/05 10:44:20;;;;;;;6.28;3.50;;;16.50;99.90;;;;;;5031946;28;20042;-63
2022/10/05 10:47:10;;;;;;;4.13;3.03;;;16.40;99.90;;;;;;5023076;28;20076;-64
2022/10/05 10:49:54;;;;;;;5.03;3.50;;;16.50;99.90;;;;;;5030634;28;20045;-65
2022/10/05 10:52:38;;;;;;;4.15;3.17;;;16.50;99.90;;;;;;5031738;28;20490;-64
2022/10/05 10:55:20;;;;;;;4.18;3.33;;;16.50;99.90;;;;;;5019678;28;20046;-63
2022/10/05 10:58:08;;;;;;;3.25;2.58;;;16.40;99.90;;;;;;5028648;28;20041;-64
2022/10/05 11:00:53;;;;;;;4.13;2.92;;;16.40;99.90;;;;;;5020106;28;20507;-65
2022/10/05 11:03:38;;;;;;;5.80;3.20;;;16.40;99.90;;;;;;5023129;28;20534;-65
2022/10/05 11:06:18;;;;;;;5.15;3.20;;;16.50;99.90;;;;;;5026088;28;20038;-65
2022/10/05 11:09:09;;;;;;;5.13;2.80;;;16.50;99.90;;;;;;5024145;28;20042;-65
2022/10/05 11:12:08;;;;;;;3.35;2.63;;;16.50;99.90;;;;;;5030205;28;20042;-65
2022/10/05 11:14:43;;;;;;;5.15;2.97;;;16.40;99.90;;;;;;5024404;28;20054;-66
2022/10/05 11:17:18;;;;;;;;;;;16.30;99.90;;;;;;5031041;28;20045;-65
2022/10/05 11:20:08;;;;;;;4.13;3.13;;;16.40;99.90;;;;;;5026435;28;20379;-64
2022/10/05 11:22:44;;;;;;;6.15;3.15;;;16.40;99.90;;;;;;4966546;28;20053;-65
2022/10/05 11:25:47;;;;;;;4.28;3.35;;;16.30;99.90;;;;;;5016416;28;20045;-65
2022/10/05 11:28:47;;;;;;;5.32;2.67;;;16.60;99.90;;;;;;5014679;28;20056;-65
2022/10/05 11:31:40;;;;;;;4.47;2.53;;;16.60;99.90;;;;;;5014296;28;20496;-65
2022/10/05 11:34:37;;;;;;;4.57;3.22;;;16.60;99.90;;;;;;5017123;28;20049;-65
2022/10/05 11:37:02;;;;;;;3.80;3.05;;;16.60;99.90;;;;;;5034994;28;20117;-64
2022/10/05 11:39:36;;;;;;;3.88;3.13;;;16.70;99.90;;;;;;5033927;28;20120;-65
2022/10/05 11:42:31;;;;;;;4.45;3.10;;;16.60;99.90;;;;;;5032099;28;20045;-63
2022/10/05 11:45:20;;;;;;;9.88;3.65;;;16.50;99.90;;;;;;4960647;28;20425;-65
2022/10/05 11:48:07;;;;;;;4.57;3.60;;;16.50;99.90;;;;;;5032273;28;20151;-65
2022/10/05 11:50:41;;;;;;;8.00;3.60;;;16.60;99.90;;;;;;5034208;28;20048;-65
2022/10/05 11:53:16;;;;;;;8.43;4.30;;;16.50;99.90;;;;;;5033802;28;20076;-64
2022/10/05 11:55:56;;;;;;;4.47;3.92;;;16.50;99.90;;;;;;5032422;28;20510;-65
2022/10/05 11:58:27;;;;;;;7.68;4.05;;;16.50;99.90;;;;;;5032486;28;20492;-65
2022/10/05 12:01:19;;;;;;;7.05;4.22;;;16.70;99.90;;;;;;5032274;28;20034;-64
2022/10/05 12:03:44;;;;;;;6.35;4.20;;;16.50;99.90;;;;;;5017974;28;20053;-65
2022/10/05 12:06:17;;;;;;;5.82;4.90;;;16.70;99.90;;;;;;5034611;28;20048;-63
2022/10/05 12:08:57;;;;;;;7.80;4.32;;;16.70;99.90;;;;;;5020735;28;20392;-64
2022/10/05 12:11:41;;;;;;;13.45;5.50;;;16.50;99.90;;;;;;5033425;28;20510;-64
2022/10/05 12:14:24;;;;;;;5.57;4.18;;;16.60;99.90;;;;;;5025983;28;20439;-64
2022/10/05 12:17:10;;;;;;;5.90;4.43;;;16.60;99.90;;;;;;5028900;28;20050;-63
2022/10/05 12:19:42;;;;;;;4.85;4.20;;;16.60;99.90;;;;;;5027837;28;20443;-64
2022/10/05 12:22:16;;;;;;;8.25;4.35;;;16.50;99.90;;;;;;5034516;28;20042;-63
2022/10/05 12:25:22;;;;;;;8.43;3.88;;;16.80;99.90;;;;;;5013569;28;20041;-63
2022/10/05 12:27:53;;;;;;;6.70;3.75;;;16.50;99.90;;;;;;5022721;28;20047;-63
2022/10/05 12:30:31;;;;;;;9.07;4.30;;;16.60;99.90;;;;;;5032583;28;20033;-63
2022/10/05 12:33:07;;;;;;;6.75;4.03;;;16.50;99.90;;;;;;5032700;28;20087;-64
2022/10/05 12:35:43;;;;;;;5.68;3.90;;;16.50;99.90;;;;;;5033982;28;20037;-65
2022/10/05 12:38:15;;;;;;;4.63;3.40;;;16.50;99.90;;;;;;5033757;28;20033;-65
2022/10/05 12:40:50;;;;;;;5.60;3.83;;;16.60;99.90;;;;;;5033768;28;20533;-65
2022/10/05 12:43:19;;;;;;;5.45;3.67;;;16.60;99.90;;;;;;5033889;28;20069;-65
2022/10/05 12:46:12;;;;;;;4.18;3.28;;;16.60;99.90;;;;;;5033865;28;20047;-65
2022/10/05 12:48:56;;;;;;;4.68;3.65;;;16.90;99.90;;;;;;5033863;28;20116;-67
2022/10/05 12:51:32;;;;;;;8.07;3.90;;;16.60;99.90;;;;;;5026360;28;20052;-65
2022/10/05 12:54:31;;;;;;;8.25;3.17;;;16.60;99.90;;;;;;5032399;28;20083;-65
2022/10/05 12:57:07;;;;;;;4.40;3.08;;;16.60;99.90;;;;;;5032058;28;20499;-65
2022/10/05 12:59:53;;;;;;;4.50;3.00;;;16.60;99.90;;;;;;5032510;28;20450;-65
2022/10/05 13:02:55;;;;;;;4.88;2.95;;;16.60;99.90;;;;;;5026655;28;20373;-65
2022/10/05 13:05:51;;;;;;;4.57;2.42;;;16.70;99.90;;;;;;5031880;28;20084;-65
2022/10/05 13:08:23;;;;;;;4.72;3.45;;;16.70;99.90;;;;;;5026664;28;20045;-65
2022/10/05 13:11:00;;;;;;;4.47;3.03;;;16.60;99.90;;;;;;5026631;28;20033;-65
2022/10/05 13:13:58;;;;;;;5.90;2.67;;;16.70;99.90;;;;;;5009133;28;20048;-65
2022/10/05 13:17:00;;;;;;;4.63;2.90;;;16.80;99.90;;;;;;5030068;28;20139;-65
2022/10/05 13:19:51;;;;;;;7.07;3.10;;;16.70;99.90;;;;;;5026200;28;20058;-65
2022/10/05 13:22:29;;;;;;;7.20;2.78;;;16.90;99.90;;;;;;5032317;28;20041;-64
2022/10/05 13:24:58;;;;;;;5.15;3.00;;;;;;;;;;5033105;28;20046;-65
2022/10/05 13:27:29;;;;;;;4.38;2.88;;;16.80;99.90;;;;;;5031562;28;20377;-64
2022/10/05 13:30:04;;;;;;;6.18;3.53;;;16.90;99.90;;;;;;5031627;28;20046;-65
2022/10/05 13:32:34;;;;;;;;;;;16.80;99.90;;;;;;5031762;28;20041;-64
2022/10/05 13:35:26;;;;;;;5.00;3.38;;;17.00;99.90;;;;;;5032890;28;19928;-65
2022/10/05 13:38:09;;;;;;;7.60;3.30;;;17.10;99.90;;;;;;5020769;28;20046;-65
2022/10/05 13:40:44;;;;;;;4.07;3.20;;;17.10;99.90;;;;;;5031386;28;20120;-65
2022/10/05 13:43:29;;;;;;;6.63;3.90;;;17.00;99.90;;;;;;5030884;28;20440;-65
2022/10/05 13:46:06;;;;;;;7.40;3.25;;;17.00;99.90;;;;;;5031381;28;20041;-65
2022/10/05 13:49:28;;;;;;;5.25;3.28;;;17.00;99.90;;;;;;5031882;28;20041;-65
2022/10/05 13:52:22;;;;;;;10.18;3.42;;;16.90;99.90;;;;;;5002489;28;20096;-64
2022/10/05 13:55:00;;;;;;;5.07;2.80;;;17.20;99.90;;;;;;5028806;28;20521;-62
2022/10/05 13:57:50;;;;;;;4.80;2.55;;;17.40;99.90;;;;;;5031836;28;20420;-64
2022/10/05 14:00:21;;;;;;;6.65;3.10;;;17.20;99.90;;;;;;5004744;28;20056;-64
2022/10/05 14:02:52;;;;;;;4.22;2.90;;;17.00;99.90;;;;;;5026087;28;20033;-64
2022/10/05 14:05:21;;;;;;;5.10;2.55;;;17.20;99.90;;;;;;5024452;28;20112;-65
2022/10/05 14:07:52;;;;;;;4.55;2.83;;;17.10;99.90;;;;;;5023106;28;20045;-64